PWSweather.com
Personal Weather Stations
Station Observations
WISCHPK61
Green Bay Schmitt Park, Green Bay, WI 54311

Green Bay Schmitt ParkGreen Bay, WI 54311

Lat: 44.514277, Lon: -87.935067

Elevation: 735

Station Type: Acu Rite Pro Weather Center model 02032C

http://greenbayweathercam.com

High Low Average
Temperature 48.6°F9.2°C 32.9°F0.5°C 38.8°F3.8°C
Dew Point 48.3°F9.1°C 27.3°F-2.6°C 36.1°F2.3°C
Winds 4.6 mph 7.4 kmh Calm Calm 1.0 mph WSW1.6 kmh WSW
Wind Gusts 8.1 mph13.0 kmh -- 1.0 mph1.6 kmh
Humidity 99% 56% 91%
Pressure 29.30 in992.2 mb 29.12 in986.1 mb -
Precipitation 0.01 in0.3 mm - -
Hour Temp Dew Point Humidity Winds Wind Gusts Pressure Precip Precip Rate Daily Precip Total
12:00 AM 33.6°F0.9°C 33.3°F0.7°C 99% Calm Calm -- 29.22 in989.5 mb - 0.00 in0.0 mm 0.00 in0.0 mm
01:00 AM 33.8°F1.0°C 33.5°F0.8°C 99% Calm Calm -- 29.23 in989.8 mb - 0.01 in0.3 mm 0.01 in0.3 mm
02:00 AM 33.3°F0.7°C 31.0°F-0.6°C 91% Calm Calm -- 29.25 in990.5 mb - 0.00 in0.0 mm 0.01 in0.3 mm
03:00 AM 33.3°F0.7°C 30.4°F-0.9°C 89% Calm Calm -- 29.25 in990.5 mb - 0.00 in0.0 mm 0.01 in0.3 mm
04:00 AM 32.9°F0.5°C 32.7°F0.4°C 99% Calm Calm -- 29.26 in990.9 mb - 0.00 in0.0 mm 0.01 in0.3 mm
05:00 AM 32.9°F0.5°C 32.7°F0.4°C 99% Calm Calm -- 29.27 in991.2 mb - 0.00 in0.0 mm 0.01 in0.3 mm
06:00 AM 32.9°F0.5°C 32.7°F0.4°C 99% Calm Calm -- 29.27 in991.2 mb - 0.00 in0.0 mm 0.01 in0.3 mm
07:00 AM 32.9°F0.5°C 32.7°F0.4°C 99% Calm Calm -- 29.28 in991.5 mb - 0.00 in0.0 mm 0.01 in0.3 mm
08:00 AM 33.1°F0.6°C 31.0°F-0.6°C 92% Calm Calm -- 29.30 in992.2 mb - 0.00 in0.0 mm 0.01 in0.3 mm
09:00 AM 34.0°F1.1°C 29.4°F-1.4°C 83% Calm Calm -- 29.30 in992.2 mb - 0.00 in0.0 mm 0.01 in0.3 mm
10:00 AM 36.1°F2.3°C 35.8°F2.1°C 99% Calm Calm -- 29.30 in992.2 mb - 0.00 in0.0 mm 0.01 in0.3 mm
11:00 AM 36.9°F2.7°C 36.6°F2.6°C 99% Calm Calm -- 29.29 in991.9 mb - 0.00 in0.0 mm 0.01 in0.3 mm
12:00 PM 38.8°F3.8°C 33.5°F0.8°C 81% Calm Calm -- 29.28 in991.5 mb - 0.00 in0.0 mm 0.01 in0.3 mm
01:00 PM 41.7°F5.4°C 41.4°F5.2°C 99% Calm Calm -- 29.25 in990.5 mb - 0.00 in0.0 mm 0.01 in0.3 mm
02:00 PM 46.2°F7.9°C 45.9°F7.7°C 99% 1.2 mph NW1.9 kmh NW 3.5 mph5.6 kmh 29.22 in989.5 mb - 0.00 in0.0 mm 0.01 in0.3 mm
03:00 PM 48.6°F9.2°C 48.3°F9.1°C 99% 2.3 mph NW3.7 kmh NW 2.3 mph3.7 kmh 29.17 in987.8 mb - 0.00 in0.0 mm 0.01 in0.3 mm
04:00 PM 47.7°F8.7°C 47.4°F8.6°C 99% 1.2 mph WNW1.9 kmh WNW 2.3 mph3.7 kmh 29.15 in987.1 mb - 0.00 in0.0 mm 0.01 in0.3 mm
05:00 PM 46.6°F8.1°C 46.3°F7.9°C 99% 3.5 mph NW5.6 kmh NW 5.8 mph9.3 kmh 29.12 in986.1 mb - 0.00 in0.0 mm 0.01 in0.3 mm
06:00 PM 46.2°F7.9°C 45.9°F7.7°C 99% Calm Calm 1.2 mph1.9 kmh 29.12 in986.1 mb - 0.00 in0.0 mm 0.01 in0.3 mm
07:00 PM 44.6°F7.0°C 38.8°F3.8°C 80% Calm Calm -- 29.13 in986.5 mb - 0.00 in0.0 mm 0.01 in0.3 mm
08:00 PM 42.6°F5.9°C 42.3°F5.7°C 99% Calm Calm -- 29.13 in986.5 mb - 0.00 in0.0 mm 0.01 in0.3 mm
09:00 PM 41.9°F5.5°C 27.3°F-2.6°C 56% 2.3 mph NW3.7 kmh NW 3.5 mph5.6 kmh 29.14 in986.8 mb - 0.00 in0.0 mm 0.01 in0.3 mm
10:00 PM 40.6°F4.8°C 27.4°F-2.6°C 59% Calm Calm -- 29.15 in987.1 mb - 0.00 in0.0 mm 0.01 in0.3 mm
11:00 PM 38.8°F3.8°C 27.6°F-2.4°C 64% 4.6 mph N7.4 kmh N 8.1 mph13.0 kmh 29.15 in987.1 mb - 0.00 in0.0 mm 0.01 in0.3 mm